createdAt,value
2023-03-11T00:02:20.199Z,7.35
2023-03-11T00:07:22.480Z,7.44
2023-03-11T00:12:24.699Z,7.91
2023-03-11T00:17:26.800Z,7.39
2023-03-11T00:22:28.904Z,7.34
2023-03-11T00:27:31.785Z,6.77
2023-03-11T00:32:35.699Z,7.50
2023-03-11T00:37:37.976Z,6.94
2023-03-11T00:42:40.254Z,6.55
2023-03-11T00:47:42.844Z,6.90
2023-03-11T00:52:47.868Z,7.22
2023-03-11T00:57:57.599Z,7.37
2023-03-11T01:03:02.552Z,7.43
2023-03-11T01:08:06.018Z,7.25
2023-03-11T01:13:08.284Z,7.49
2023-03-11T01:18:10.538Z,6.74
2023-03-11T01:23:14.611Z,5.66
2023-03-11T01:28:16.908Z,6.71
2023-03-11T01:33:20.342Z,7.27
2023-03-11T01:38:22.706Z,6.70
2023-03-11T01:43:47.662Z,6.67
2023-03-11T01:48:59.022Z,6.02
2023-03-11T01:54:10.813Z,6.13
2023-03-11T01:59:19.438Z,6.55
2023-03-11T02:04:22.153Z,6.43
2023-03-11T02:09:27.129Z,5.79
2023-03-11T02:14:30.813Z,6.01
2023-03-11T02:19:54.881Z,6.11
2023-03-11T02:25:05.248Z,6.61
2023-03-11T02:30:37.481Z,6.98
2023-03-11T02:35:40.252Z,6.52
2023-03-11T02:40:57.028Z,6.54
2023-03-11T02:46:01.984Z,5.50
2023-03-11T02:51:05.896Z,5.80
2023-03-11T02:56:08.471Z,6.18
2023-03-11T03:01:11.258Z,5.95
2023-03-11T03:06:15.832Z,5.78
2023-03-11T03:11:18.166Z,5.97
2023-03-11T03:16:21.709Z,5.87
2023-03-11T03:21:23.881Z,6.30
2023-03-11T03:26:26.764Z,6.47
2023-03-11T03:31:28.967Z,6.29
2023-03-11T03:36:32.496Z,6.44
2023-03-11T03:41:38.482Z,6.69
2023-03-11T03:46:42.083Z,6.06
2023-03-11T03:51:45.375Z,6.62
2023-03-11T03:56:56.164Z,4.81
2023-03-11T04:01:59.256Z,5.44
2023-03-11T04:07:05.817Z,5.23
2023-03-11T04:12:14.856Z,4.86
2023-03-11T04:17:17.925Z,4.80
2023-03-11T04:22:20.268Z,6.10
2023-03-11T04:27:22.777Z,3.88
2023-03-11T04:32:25.438Z,4.85
2023-03-11T04:37:30.991Z,4.55
2023-03-11T04:42:33.447Z,4.57
2023-03-11T04:47:36.466Z,5.01
2023-03-11T04:52:40.125Z,4.37
2023-03-11T04:57:43.569Z,3.93
2023-03-11T05:02:48.043Z,5.05
2023-03-11T05:07:50.463Z,5.12
2023-03-11T05:12:52.995Z,5.47
2023-03-11T05:17:57.301Z,5.16
2023-03-11T05:23:00.038Z,4.24
2023-03-11T05:28:04.995Z,3.69
2023-03-11T05:33:09.740Z,3.01
2023-03-11T05:38:12.896Z,3.36
2023-03-11T05:43:15.223Z,3.29
2023-03-11T05:48:21.929Z,3.72
2023-03-11T05:53:25.389Z,3.44
2023-03-11T05:58:30.147Z,4.01
2023-03-11T06:03:32.588Z,4.00
2023-03-11T06:08:35.645Z,4.39
2023-03-11T06:13:41.680Z,4.01
2023-03-11T06:18:46.126Z,4.09
2023-03-11T06:49:59.882Z,3.99
2023-03-11T06:55:04.128Z,4.71
2023-03-11T07:00:12.297Z,4.16
2023-03-11T07:05:17.068Z,4.17
2023-03-11T07:10:19.497Z,4.15
2023-03-11T07:15:21.841Z,4.27
2023-03-11T07:20:24.155Z,4.64
2023-03-11T07:25:26.420Z,4.36
2023-03-11T07:30:28.684Z,3.85
2023-03-11T07:35:31.113Z,5.05
2023-03-11T07:40:33.286Z,4.61
2023-03-11T07:45:35.547Z,5.19
2023-03-11T07:50:37.823Z,4.24
2023-03-11T07:55:40.019Z,5.11
2023-03-11T08:00:42.278Z,5.31
2023-03-11T08:05:44.593Z,5.58
2023-03-11T08:10:46.957Z,4.86
2023-03-11T08:15:49.127Z,4.80
2023-03-11T08:20:51.339Z,4.73
2023-03-11T08:25:53.557Z,4.91
2023-03-11T08:30:55.825Z,4.70
2023-03-11T08:35:58.185Z,5.25
2023-03-11T08:41:01.094Z,6.01
2023-03-11T08:46:08.800Z,4.88
2023-03-11T08:51:13.500Z,5.46
2023-03-11T08:56:15.637Z,5.48
2023-03-11T09:01:18.303Z,5.02
2023-03-11T09:06:21.320Z,5.16
2023-03-11T09:11:24.254Z,5.26
2023-03-11T09:16:26.543Z,6.15
2023-03-11T09:21:28.866Z,5.55
2023-03-11T09:26:32.159Z,5.62
2023-03-11T09:31:34.511Z,4.99
2023-03-11T09:36:36.736Z,6.44
2023-03-11T09:41:59.411Z,6.53
2023-03-11T09:47:20.076Z,5.53
2023-03-11T09:52:37.974Z,6.51
2023-03-11T09:57:40.239Z,7.02
2023-03-11T10:02:43.238Z,6.71
2023-03-11T10:08:01.067Z,6.67
2023-03-11T10:13:50.196Z,6.73
2023-03-11T10:19:30.879Z,7.00
2023-03-11T10:25:10.493Z,7.82
2023-03-11T10:30:27.456Z,7.48
2023-03-11T10:35:46.073Z,8.50
2023-03-11T10:40:52.510Z,8.40
2023-03-11T10:45:55.411Z,6.69
2023-03-11T10:51:18.051Z,8.25
2023-03-11T10:56:37.253Z,7.92
2023-03-11T11:01:40.862Z,7.80
2023-03-11T11:06:43.441Z,9.11
2023-03-11T11:12:13.645Z,8.72
2023-03-11T11:17:37.042Z,7.90
2023-03-11T11:22:50.621Z,8.54
2023-03-11T11:28:18.307Z,7.12
2023-03-11T11:33:55.424Z,8.07
2023-03-11T11:39:02.740Z,8.69
2023-03-11T11:44:07.400Z,9.45
2023-03-11T11:49:30.414Z,7.53
2023-03-11T11:54:40.590Z,7.46
2023-03-11T11:59:44.023Z,9.11
2023-03-11T12:05:16.670Z,9.23
2023-03-11T12:10:56.460Z,9.67
2023-03-11T12:16:20.401Z,9.10
2023-03-11T12:21:51.373Z,9.82
2023-03-11T12:27:00.526Z,9.30
2023-03-11T12:32:03.900Z,9.31
2023-03-11T12:37:17.111Z,9.78
2023-03-11T12:42:27.005Z,9.57
2023-03-11T12:47:29.129Z,9.38
2023-03-11T12:52:31.738Z,9.42
2023-03-11T12:57:44.348Z,9.98
2023-03-11T13:03:10.917Z,8.94
2023-03-11T13:08:56.882Z,9.96
2023-03-11T13:14:36.390Z,10.28
2023-03-11T13:19:50.233Z,10.17
2023-03-11T13:24:52.559Z,10.27
2023-03-11T13:30:06.700Z,10.34
2023-03-11T13:35:44.672Z,10.43
2023-03-11T13:40:47.808Z,9.98
2023-03-11T13:46:02.328Z,10.03
2023-03-11T13:51:35.410Z,10.53
2023-03-11T13:56:54.112Z,9.75
2023-03-11T14:02:17.644Z,10.63
2023-03-11T14:07:34.313Z,10.36
2023-03-11T14:12:36.496Z,10.59
2023-03-11T14:17:38.763Z,9.20
2023-03-11T14:22:46.042Z,9.98
2023-03-11T14:27:56.288Z,10.45
2023-03-11T14:33:02.802Z,9.33
2023-03-11T14:38:22.130Z,10.02
2023-03-11T14:43:24.939Z,10.65
2023-03-11T14:48:46.052Z,10.02
2023-03-11T14:54:04.164Z,10.09
2023-03-11T14:59:16.401Z,10.33
2023-03-11T15:04:32.906Z,9.35
2023-03-11T15:09:40.993Z,10.61
2023-03-11T15:14:51.691Z,8.69
2023-03-11T15:19:54.504Z,10.07
2023-03-11T15:24:59.962Z,9.08
2023-03-11T15:30:15.356Z,10.20
2023-03-11T15:35:28.208Z,9.93
2023-03-11T15:40:44.322Z,9.42
2023-03-11T15:45:49.100Z,8.39
2023-03-11T15:51:00.086Z,9.52
2023-03-11T15:56:12.398Z,10.04
2023-03-11T16:01:14.514Z,8.88
2023-03-11T16:06:16.607Z,8.67
2023-03-11T16:11:18.906Z,8.45
2023-03-11T16:16:21.096Z,9.15
2023-03-11T16:21:31.284Z,8.86
2023-03-11T16:26:35.632Z,8.85
2023-03-11T16:31:37.751Z,8.82
2023-03-11T16:36:39.887Z,9.23
2023-03-11T16:41:44.598Z,9.50
2023-03-11T16:46:46.902Z,8.76
2023-03-11T16:51:49.030Z,9.11
2023-03-11T16:56:51.279Z,9.31
2023-03-11T17:01:53.395Z,9.22
2023-03-11T17:06:56.088Z,9.59
2023-03-11T17:11:58.465Z,10.00
2023-03-11T17:17:00.709Z,9.88
2023-03-11T17:22:03.085Z,9.55
2023-03-11T17:27:05.894Z,9.45
2023-03-11T17:32:08.624Z,9.28
2023-03-11T17:37:10.864Z,9.35
2023-03-11T17:42:13.004Z,8.84
2023-03-11T17:47:15.240Z,8.95
2023-03-11T17:52:17.559Z,9.20
2023-03-11T17:57:19.823Z,9.01
2023-03-11T18:02:22.331Z,8.96
2023-03-11T18:07:25.935Z,8.79
2023-03-11T18:12:28.183Z,8.97
2023-03-11T18:17:30.915Z,9.07
2023-03-11T18:22:35.432Z,8.86
2023-03-11T18:27:38.864Z,9.07
2023-03-11T18:32:41.411Z,9.17
2023-03-11T18:37:44.103Z,9.20
2023-03-11T18:42:46.474Z,8.90
2023-03-11T18:47:49.034Z,8.98
2023-03-11T18:52:52.841Z,8.93
2023-03-11T18:57:55.143Z,8.32
2023-03-11T19:02:57.255Z,8.69
2023-03-11T19:07:59.452Z,8.60
2023-03-11T19:13:01.536Z,8.73
2023-03-11T19:18:07.000Z,8.87
2023-03-11T19:23:11.219Z,8.70
2023-03-11T19:28:13.505Z,8.80
2023-03-11T19:33:15.810Z,8.86
2023-03-11T19:38:18.134Z,8.79
2023-03-11T19:43:21.560Z,8.11
2023-03-11T19:48:24.232Z,8.63
2023-03-11T19:53:27.636Z,8.49
2023-03-11T19:58:30.956Z,8.05
2023-03-11T20:03:33.361Z,8.54
2023-03-11T20:08:37.337Z,8.36
2023-03-11T20:13:42.639Z,8.32
2023-03-11T20:18:45.916Z,7.99
2023-03-11T20:23:49.180Z,7.62
2023-03-11T20:28:56.356Z,7.57
2023-03-11T20:33:58.922Z,7.41
2023-03-11T20:39:01.387Z,7.22
2023-03-11T20:44:05.705Z,7.01
2023-03-11T20:49:07.898Z,6.91
2023-03-11T20:54:12.251Z,6.85
2023-03-11T20:59:14.906Z,7.21
2023-03-11T21:04:17.181Z,6.58
2023-03-11T21:09:19.765Z,6.90
2023-03-11T21:14:22.195Z,6.75
2023-03-11T21:19:24.577Z,7.71
2023-03-11T21:24:26.990Z,6.73
2023-03-11T21:29:30.740Z,6.35
2023-03-11T21:34:33.108Z,7.07
2023-03-11T21:39:35.303Z,6.13
2023-03-11T21:44:37.509Z,6.40
2023-03-11T21:49:39.796Z,6.51
2023-03-11T21:54:42.178Z,6.07
2023-03-11T21:59:44.521Z,5.94
2023-03-11T22:04:47.057Z,6.11
2023-03-11T22:09:49.274Z,6.22
2023-03-11T22:14:51.771Z,6.74
2023-03-11T22:19:53.995Z,6.70
2023-03-11T22:24:56.300Z,6.55
2023-03-11T22:30:01.621Z,6.59
2023-03-11T22:35:03.936Z,6.52
2023-03-11T22:40:07.748Z,6.79
2023-03-11T22:45:10.507Z,7.08
2023-03-11T22:50:12.613Z,7.00
2023-03-11T22:55:14.819Z,6.94
2023-03-11T23:00:22.192Z,7.13
2023-03-11T23:05:24.508Z,7.41
2023-03-11T23:10:27.213Z,7.13
2023-03-11T23:15:30.128Z,7.24
2023-03-11T23:20:36.243Z,7.35
2023-03-11T23:25:40.410Z,7.12
2023-03-11T23:30:42.564Z,7.14
2023-03-11T23:35:44.714Z,7.19
2023-03-11T23:40:47.036Z,7.15
2023-03-11T23:45:49.393Z,7.18
2023-03-11T23:50:51.799Z,7.03
2023-03-11T23:55:55.112Z,7.20
